Time;durP1;ratioP1;P1;durP2;ratioP2;P2;SDS_P1;SDS_P2;PMS_P1;PMS_P2;Temp;Humidity;BMP_temperature;BMP_pressure;BME280_temperature;BME280_humidity;BME280_pressure;Samples;Min_cycle;Max_cycle;Signal;HPM_P1;HPM_P2
2022/02/22 00:05:35;;;;;;;13.50;4.75;;;;;;;5.81;80.54;98190.98;712956;1176;115137;-77
2022/02/22 00:20:37;;;;;;;5.90;2.57;;;;;;;5.83;80.89;98194.25;712688;1175;114347;-74
2022/02/22 00:35:40;;;;;;;5.48;2.55;;;;;;;5.78;81.65;98212.12;712960;1177;114983;-73
2022/02/22 00:50:42;;;;;;;5.07;2.50;;;;;;;5.73;82.39;98226.54;712776;1175;114808;-73
2022/02/22 01:05:45;;;;;;;4.95;2.78;;;;;;;5.77;82.97;98249.51;712956;1175;114211;-73
2022/02/22 01:20:47;;;;;;;7.58;2.88;;;;;;;5.81;84.19;98245.63;712991;1176;115075;-74
2022/02/22 01:35:49;;;;;;;18.35;7.20;;;;;;;5.93;84.76;98276.60;712937;1177;114158;-73
2022/02/22 01:50:51;;;;;;;11.80;5.60;;;;;;;5.95;86.12;98308.48;712717;1177;115109;-75
2022/02/22 02:05:54;;;;;;;6.65;3.35;;;;;;;5.98;87.59;98323.84;712911;1177;115046;-74
2022/02/22 02:20:56;;;;;;;11.63;3.83;;;;;;;5.69;91.80;98396.93;712812;1175;114816;-74
2022/02/22 02:35:58;;;;;;;7.40;3.18;;;;;;;5.12;93.33;98430.05;713114;1175;114859;-73
2022/02/22 02:51:00;;;;;;;8.60;2.90;;;;;;;5.14;94.34;98448.91;713041;1177;114831;-74
2022/02/22 03:06:02;;;;;;;3.00;1.88;;;;;;;5.04;95.92;98484.55;712984;1176;114023;-74
2022/02/22 03:21:05;;;;;;;3.73;2.13;;;;;;;5.05;96.99;98530.34;712673;1177;114557;-74
2022/02/22 03:36:08;;;;;;;6.23;2.45;;;;;;;5.07;96.48;98564.83;713011;1176;114467;-77
2022/02/22 03:51:12;;;;;;;5.43;1.97;;;;;;;4.98;96.03;98613.27;713139;1177;113455;-75
2022/02/22 04:06:16;;;;;;;4.33;1.80;;;;;;;5.00;96.06;98644.31;713165;1177;115179;-73
2022/02/22 04:21:19;;;;;;;4.10;1.90;;;;;;;4.86;95.63;98668.96;712954;1175;114132;-74
2022/02/22 04:36:23;;;;;;;3.13;1.67;;;;;;;4.69;94.51;98711.23;712999;1176;114306;-74
2022/02/22 04:51:28;;;;;;;5.55;2.15;;;;;;;4.44;95.39;98734.97;712959;1176;113927;-74
2022/02/22 05:06:32;;;;;;;6.80;2.97;;;;;;;4.42;96.52;98762.86;713031;1176;113667;-74
2022/02/22 05:21:35;;;;;;;4.85;2.40;;;;;;;4.44;95.86;98792.09;713640;1176;114886;-74
2022/02/22 05:36:40;;;;;;;10.93;4.73;;;;;;;4.50;96.28;98827.94;713362;1175;115100;-73
2022/02/22 05:51:44;;;;;;;103.00;34.05;;;;;;;4.47;96.17;98854.17;713070;1177;115158;-74
2022/02/22 06:06:48;;;;;;;16.97;8.80;;;;;;;4.12;96.41;98899.50;712835;1175;115067;-74
2022/02/22 06:21:52;;;;;;;21.07;8.20;;;;;;;4.03;95.87;98934.00;713107;1175;115098;-74
2022/02/22 06:36:57;;;;;;;11.13;4.90;;;;;;;4.05;95.61;98972.80;713123;1177;113570;-74
2022/02/22 06:52:00;;;;;;;11.45;4.88;;;;;;;4.22;95.04;98998.19;712753;1177;115798;-75
2022/02/22 07:07:06;;;;;;;23.90;8.77;;;;;;;4.35;92.68;99030.95;712897;1177;113816;-74
2022/02/22 07:22:08;;;;;;;37.00;13.87;;;;;;;4.52;91.34;99069.34;714318;1176;113801;-73
2022/02/22 07:37:13;;;;;;;26.60;10.70;;;;;;;4.36;89.90;99105.31;714164;1175;115329;-73
2022/02/22 07:52:16;;;;;;;21.00;7.75;;;;;;;4.27;89.37;99138.84;713691;1175;113938;-75
2022/02/22 08:07:23;;;;;;;33.33;18.25;;;;;;;4.13;92.27;99172.86;713703;1176;114944;-74
2022/02/22 08:22:25;;;;;;;93.23;31.63;;;;;;;4.27;90.73;99201.16;713832;1177;113907;-74
2022/02/22 08:37:28;;;;;;;41.33;17.60;;;;;;;4.56;89.62;99216.20;714074;1176;114721;-74
2022/02/22 08:52:32;;;;;;;53.57;22.67;;;;;;;4.78;88.03;99249.08;714092;1177;114739;-74
2022/02/22 09:07:36;;;;;;;39.30;16.85;;;;;;;4.99;85.77;99269.91;713912;1175;114982;-76
2022/02/22 09:22:42;;;;;;;223.50;59.50;;;;;;;5.41;84.02;99296.91;714783;1177;115184;-77
2022/02/22 09:37:45;;;;;;;79.45;30.63;;;;;;;5.47;80.88;99325.03;713695;1177;114609;-77
2022/02/22 09:52:48;;;;;;;149.65;38.85;;;;;;;5.45;79.54;99348.57;713780;1177;115129;-77
2022/02/22 10:07:55;;;;;;;305.00;83.50;;;;;;;5.42;77.81;99385.22;714122;1175;114727;-77
2022/02/22 10:22:57;;;;;;;52.97;20.37;;;;;;;5.41;78.00;99404.40;714238;1176;114859;-78
2022/02/22 10:38:17;;;;;;;88.27;34.93;;;;;;;5.37;77.79;99435.97;714308;1175;115071;-77
2022/02/22 10:53:26;;;;;;;48.20;18.53;;;;;;;5.26;76.33;99462.83;715244;1175;114650;-77
2022/02/22 11:08:31;;;;;;;53.00;20.70;;;;;;;5.52;74.42;99491.14;714662;1176;115610;-85
2022/02/22 11:23:34;;;;;;;55.65;20.83;;;;;;;5.50;73.79;99509.48;714391;1177;114020;-74
2022/02/22 11:38:46;;;;;;;19.85;10.75;;;;;;;5.31;72.45;99546.52;714876;1177;114569;-75
2022/02/22 11:54:18;;;;;;;15.75;8.10;;;;;;;5.70;72.53;99569.53;714757;1177;114497;-76
2022/02/22 12:09:33;;;;;;;20.23;9.10;;;;;;;5.86;71.77;99597.77;715076;1176;114633;-71
2022/02/22 12:24:36;;;;;;;7.70;4.50;;;;;;;5.80;69.24;99625.13;714623;1175;114075;-71
2022/02/22 12:39:39;;;;;;;28.23;10.50;;;;;;;6.02;68.31;99644.27;714486;1175;114023;-74
2022/02/22 12:54:43;;;;;;;16.00;6.80;;;;;;;6.50;67.18;99662.14;715258;1176;114170;-71
2022/02/22 13:09:48;;;;;;;16.37;6.10;;;;;;;7.47;66.79;99675.02;715042;1177;115508;-72
2022/02/22 13:24:59;;;;;;;8.53;3.80;;;;;;;9.47;65.96;99684.41;714703;1175;113851;-75
2022/02/22 13:40:09;;;;;;;11.50;4.33;;;;;;;14.87;57.67;99697.07;715772;1177;114126;-75
2022/02/22 13:55:12;;;;;;;10.20;5.67;;;;;;;18.75;51.13;99702.44;719275;1175;115068;-73
2022/02/22 14:10:14;;;;;;;16.73;9.27;;;;;;;20.58;48.46;99717.75;715028;1177;114634;-71
2022/02/22 14:25:17;;;;;;;16.40;9.85;;;;;;;21.24;43.47;99716.44;714783;1175;116140;-71
2022/02/22 14:40:21;;;;;;;14.47;8.10;;;;;;;20.73;44.12;99733.46;714697;1175;114509;-71
2022/02/22 14:55:23;;;;;;;78.77;33.33;;;;;;;20.08;43.44;99745.85;714332;1176;115094;-73
2022/02/22 15:10:26;;;;;;;76.37;38.27;;;;;;;13.79;46.43;99749.59;714911;1175;115482;-72
2022/02/22 15:25:28;;;;;;;84.18;27.95;;;;;;;11.82;49.58;99752.73;714249;1175;115887;-75
2022/02/22 15:40:51;;;;;;;75.65;26.30;;;;;;;11.06;49.87;99760.27;714859;1177;115264;-78
2022/02/22 15:55:54;;;;;;;55.60;17.05;;;;;;;8.39;52.55;99775.14;715454;1176;114595;-78
2022/02/22 16:10:57;;;;;;;38.35;15.85;;;;;;;7.22;55.47;99787.59;714546;1176;114634;-76
2022/02/22 16:26:00;;;;;;;80.05;28.50;;;;;;;6.66;57.08;99811.14;714500;1177;115550;-77
2022/02/22 16:41:03;;;;;;;40.55;18.43;;;;;;;6.43;58.34;99822.55;714626;1175;114773;-76
2022/02/22 16:56:06;;;;;;;63.50;24.07;;;;;;;5.95;59.62;99828.77;714124;1175;114624;-76
2022/02/22 17:11:08;;;;;;;55.88;17.78;;;;;;;5.47;60.81;99832.34;715112;1177;114817;-76
2022/02/22 17:26:10;;;;;;;32.85;12.68;;;;;;;5.25;61.78;99838.27;714388;1175;115049;-79
2022/02/22 17:41:14;;;;;;;51.73;18.03;;;;;;;5.01;61.76;99833.91;719198;1176;115712;-79
2022/02/22 17:56:16;;;;;;;47.93;14.47;;;;;;;4.71;63.07;99852.52;723274;1175;114529;-81
2022/02/22 18:11:25;;;;;;;78.23;22.88;;;;;;;4.61;64.18;99860.14;717221;1177;114262;-80
2022/02/22 18:26:28;;;;;;;45.90;19.48;;;;;;;4.47;63.50;99872.33;717495;1175;114854;-82
2022/02/22 18:41:31;;;;;;;179.53;59.87;;;;;;;4.32;65.17;99888.95;716248;1177;114104;-75
2022/02/22 18:56:33;;;;;;;49.95;20.05;;;;;;;4.16;64.46;99892.59;715390;1176;115013;-75
2022/02/22 19:11:36;;;;;;;47.18;18.58;;;;;;;4.04;63.96;99893.42;714663;1175;114810;-75
2022/02/22 19:26:41;;;;;;;123.40;42.80;;;;;;;3.56;65.73;99880.97;714560;1175;114444;-75
2022/02/22 19:41:44;;;;;;;128.43;38.48;;;;;;;3.59;65.77;99890.32;714542;1177;114081;-75
2022/02/22 19:56:47;;;;;;;56.60;21.98;;;;;;;3.56;65.93;99887.94;714905;1176;114368;-75
2022/02/22 20:11:50;;;;;;;58.10;21.90;;;;;;;3.51;65.60;99885.66;714032;1176;115110;-75
2022/02/22 20:26:53;;;;;;;78.20;27.50;;;;;;;3.52;66.64;99889.89;714201;1176;114533;-75
2022/02/22 20:41:56;;;;;;;54.57;19.90;;;;;;;3.37;66.29;99890.91;714807;1174;115170;-75
2022/02/22 20:56:58;;;;;;;105.95;30.63;;;;;;;3.22;66.51;99888.36;714357;1175;115498;-75
2022/02/22 21:12:01;;;;;;;107.40;30.97;;;;;;;3.03;67.77;99882.67;714295;1177;114142;-75
2022/02/22 21:27:04;;;;;;;77.53;26.43;;;;;;;2.96;68.68;99877.05;713704;1177;114998;-74
2022/02/22 21:42:07;;;;;;;33.57;14.97;;;;;;;3.04;69.13;99874.80;714459;1177;114038;-75
2022/02/22 21:57:09;;;;;;;26.23;11.67;;;;;;;3.11;69.47;99883.02;714404;1177;115233;-76
2022/02/22 22:12:12;;;;;;;32.90;11.68;;;;;;;2.99;70.06;99854.34;713965;1177;115396;-74
2022/02/22 22:27:15;;;;;;;29.13;12.03;;;;;;;2.96;70.70;99832.99;714035;1177;114412;-76
2022/02/22 22:42:17;;;;;;;26.77;11.17;;;;;;;2.89;72.04;99822.19;714425;1177;115274;-74
2022/02/22 22:57:19;;;;;;;23.37;10.80;;;;;;;2.97;73.35;99806.97;714835;1175;115456;-74
2022/02/22 23:27:42;;;;;;;26.67;11.63;;;;;;;3.27;75.25;99761.01;712921;1175;114916;-75
2022/02/22 23:42:44;;;;;;;38.33;14.83;;;;;;;3.39;75.87;99757.63;713545;1177;113987;-77
2022/02/22 23:57:46;;;;;;;79.43;24.17;;;;;;;3.39;78.39;99733.44;712801;1177;114367;-75
